Home > Products > Valid Products > TAF

000
FTUS44 KOUN 210650 AAB
TAFOUN
TAF AMD
KOUN 210650Z 2107/2206 17009KT P6SM BKN008 OVC080
      TEMPO 2107/2111 -RA
     FM211100 17007KT P6SM OVC008
     FM211600 23005KT P6SM BKN015
     FM211900 35008KT P6SM BKN025
     FM212100 36010KT P6SM SCT035=



000
FTUS44 KOUN 210649 AAA
TAFOKC
TAF AMD
KOKC 210649Z 2107/2206 17007KT P6SM BKN008 OVC080
      TEMPO 2107/2111 -RA
     FM211100 17005KT P6SM OVC008
     FM211600 23005KT P6SM BKN015
     FM211900 35008KT P6SM BKN025
     FM212100 36010KT P6SM SCT035=



000
FTUS44 KOUN 210537 AAA
TAFSPS
TAF AMD
KSPS 210537Z 2106/2206 16008KT 6SM -RA BR SCT005 OVC060
      TEMPO 2106/2108 3SM -TSRA BR BKN005CB
     FM210800 16007KT 5SM BR BKN005
     FM211500 20007KT P6SM BKN009
     FM211600 21007KT P6SM BKN015
     FM211900 36008KT P6SM SCT035=



000
FTUS44 KOUN 210520
TAFOKC
TAF
KOKC 210520Z 2106/2206 17007KT 6SM -RA BR SCT007 OVC080
     FM211000 17005KT 4SM BR VCSH OVC005
     FM211600 23005KT P6SM BKN015
     FM211900 35008KT P6SM BKN025
     FM212100 36010KT P6SM SCT035=



000
FTUS44 KOUN 210520
TAFGAG
TAF
KGAG 210520Z 2106/2206 18008KT P6SM VCSH SCT007 BKN080
     FM210800 24007KT P6SM BKN007
     FM211200 36010KT P6SM BKN007
     FM211500 36012KT P6SM SCT035=



000
FTUS44 KOUN 210520
TAFWWR
TAF
KWWR 210520Z 2106/2206 17010KT P6SM VCSH SCT007 BKN100
     FM210800 22007KT P6SM BKN007
     FM211200 36010KT P6SM BKN007
     FM211500 36012KT P6SM SCT035=



000
FTUS44 KOUN 210520
TAFHBR
TAF
KHBR 210520Z 2106/2206 17006KT 5SM BR VCSH BKN009
     FM211200 18005KT 5SM BR BKN007
     FM211500 36009KT P6SM BKN015
     FM211700 36011KT P6SM BKN025
     FM211800 36011KT P6SM SCT035=



000
FTUS44 KOUN 210520
TAFOUN
TAF
KOUN 210520Z 2106/2206 16007KT 6SM -RA BR SCT007 OVC080
     FM211000 17005KT 4SM BR VCSH OVC005
     FM211600 23005KT P6SM BKN015
     FM211900 35008KT P6SM BKN025
     FM212100 36010KT P6SM SCT035=



000
FTUS44 KOUN 210520
TAFSPS
TAF
KSPS 210520Z 2106/2206 16008KT 6SM -RA BR SCT005 OVC060
      TEMPO 2106/2108 3SM -RA BR BKN005
     FM210800 16007KT 5SM BR BKN005
     FM211500 20007KT P6SM BKN009
     FM211600 21007KT P6SM BKN015
     FM211900 36008KT P6SM SCT035=



000
FTUS44 KOUN 210520
TAFPNC
TAF
KPNC 210520Z 2106/2206 17007KT P6SM BKN080
     FM211000 17005KT P6SM VCSH BKN012
     FM211500 36006KT P6SM BKN012
     FM211700 36010KT P6SM BKN025
     FM212000 36010KT P6SM SCT035=



000
FTUS44 KOUN 210520
TAFLAW
TAF
KLAW 210520Z 2106/2206 17007KT 6SM BR VCSH BKN009
     FM211300 18005KT 5SM BR BKN007
     FM211600 31005KT P6SM BKN015
     FM211700 36007KT P6SM BKN025
     FM211900 02008KT P6SM SCT035=



000
FTUS44 KOUN 210227 AAA
TAFLAW
TAF AMD
KLAW 210227Z 2102/2124 13006KT P6SM FEW012 BKN150
     FM210700 17007KT P6SM VCSH BKN007
     FM211600 31005KT P6SM BKN015
     FM211800 02008KT P6SM SCT035=



000
FTUS44 KOUN 202345
TAFSPS
TAF
KSPS 202345Z 2100/2124 15011KT P6SM FEW035 SCT250
     FM210400 16010KT P6SM BKN007
     FM211500 19009KT P6SM BKN015
     FM211800 36008KT P6SM SCT035=



000
FTUS44 KOUN 202345
TAFPNC
TAF
KPNC 202345Z 2100/2124 17007KT P6SM BKN080
     FM210800 17005KT P6SM BKN012
     FM211500 36006KT P6SM BKN015
     FM211700 36010KT P6SM BKN025
     FM211900 36010KT P6SM SCT035=



000
FTUS44 KOUN 202345
TAFOUN
TAF
KOUN 202345Z 2100/2124 15009KT P6SM SCT004 OVC070
     FM210600 18007KT 5SM BR VCSH OVC005
     FM211000 17005KT 4SM BR OVC005
     FM211600 23005KT P6SM BKN015
     FM211900 35009KT P6SM SCT035=



000
FTUS44 KOUN 202345
TAFLAW
TAF
KLAW 202345Z 2100/2124 16009KT P6SM BKN011
     FM210300 17009KT P6SM VCTS BKN007CB
     FM210700 17007KT P6SM VCSH BKN007
     FM211600 31005KT P6SM BKN015
     FM211800 02008KT P6SM SCT035=



000
FTUS44 KOUN 202345
TAFHBR
TAF
KHBR 202345Z 2100/2124 18014KT P6SM -RA FEW011 OVC080
     FM210300 16010KT P6SM VCSH SCT007 OVC060
     FM210800 17008KT 4SM BR BKN007
     FM211500 36009KT P6SM BKN015
     FM211800 36011KT P6SM SCT035=



000
FTUS44 KOUN 202345
TAFOKC
TAF
KOKC 202345Z 2100/2124 16010KT P6SM VCSH SCT005 OVC070
     FM210600 18007KT 5SM BR VCSH OVC005
     FM211000 17005KT 4SM BR OVC005
     FM211600 23005KT P6SM BKN015
     FM211900 35009KT P6SM SCT035=



000
FTUS44 KOUN 202345
TAFGAG
TAF
KGAG 202345Z 2100/2124 15015G22KT 5SM -TSRA SCT050CB OVC100CB
      TEMPO 2100/2101 25017G25KT 3SM TSRA FEW008 OVC040CB
     FM210200 17010KT P6SM VCSH SCT007 BKN080
     FM210800 24007KT P6SM BKN007
     FM211200 36010KT P6SM BKN007
     FM211500 36013KT P6SM SCT035=



000
FTUS44 KOUN 202345
TAFWWR
TAF
KWWR 202345Z 2100/2124 15015G22KT P6SM VCTS SCT050CB OVC100CB
      TEMPO 2100/2102 25017G25KT 3SM TSRA FEW008 OVC040CB
     FM210300 17010KT P6SM VCSH SCT007 BKN080
     FM210800 24007KT P6SM BKN007
     FM211200 36010KT P6SM BKN007
     FM211500 36013KT P6SM SCT035=



000
FTUS44 KOUN 201738
TAFHBR
TAF
KHBR 201738Z 2018/2118 18014KT P6SM BKN050
      TEMPO 2018/2020 5SM -SHRA BR
     FM210300 15011KT P6SM VCSH BKN035 PROB30 2103/2108 3SM TSRA BR
      OVC012CB
     FM210800 24006KT 4SM BR VCSH OVC012
     FM211500 01012KT P6SM BKN025=



000
FTUS44 KOUN 201738
TAFWWR
TAF
KWWR 201738Z 2018/2118 19013G21KT P6SM SCT040 SCT100
      TEMPO 2020/2023 5SM -TSRA BR BKN025CB
     FM210100 17012KT P6SM BKN040 PROB30 2104/2108 -TSRA BKN025CB
     FM210800 24007KT P6SM BKN020
     FM211200 36013KT P6SM BKN100=



000
FTUS44 KOUN 201738
TAFLAW
TAF
KLAW 201738Z 2018/2118 18014KT P6SM BKN040
      TEMPO 2018/2022 2SM TSRA BR BKN025CB
     FM210300 15011KT P6SM VCSH BKN035 PROB30 2103/2108 3SM TSRA BR
      OVC012CB
     FM210800 24006KT 4SM BR VCSH OVC012
     FM211400 24007KT P6SM BKN025=



000
FTUS44 KOUN 201738
TAFSPS
TAF
KSPS 201738Z 2018/2118 17013KT P6SM BKN040
      TEMPO 2018/2022 2SM TSRA BR BKN025CB
     FM210300 15011KT 5SM BR VCSH BKN035 PROB30 2103/2109 3SM TSRA
      BR OVC012CB
     FM210900 19006KT 4SM RA BR OVC012
     FM211400 27010KT P6SM BKN025=



000
FTUS44 KOUN 201738
TAFGAG
TAF
KGAG 201738Z 2018/2118 19013G21KT P6SM SCT040 SCT100
      TEMPO 2020/2023 5SM -TSRA BR BKN025CB
     FM210100 17012KT P6SM BKN040 PROB30 2104/2108 -TSRA BKN025CB
     FM210800 22007KT P6SM BKN025
     FM211200 36013KT P6SM BKN100=



000
FTUS44 KOUN 201738
TAFOUN
TAF
KOUN 201738Z 2018/2118 17013KT P6SM OVC100
     FM210000 14009KT P6SM VCSH BKN035 OVC080 PROB30 2103/2106 5SM
      -TSRA BR OVC025CB
     FM210600 16007KT 5SM -RA BR OVC025
      TEMPO 2106/2110 3SM -TSRA BR BKN008CB
     FM211400 VRB04KT 5SM BR VCSH OVC008=



000
FTUS44 KOUN 201738
TAFOKC
TAF
KOKC 201738Z 2018/2118 17013KT P6SM OVC100
     FM210000 15010KT P6SM VCSH BKN035 OVC080 PROB30 2103/2106 5SM
      -TSRA BR OVC025CB
     FM210600 16007KT 5SM -RA BR OVC025
      TEMPO 2106/2110 3SM -TSRA BR BKN008CB
     FM211400 VRB04KT 4SM BR VCSH OVC008=



000
FTUS44 KOUN 201738
TAFPNC
TAF
KPNC 201738Z 2018/2118 18011KT P6SM BKN080
      TEMPO 2018/2020 -RA
     FM210600 14007KT 5SM BR VCSH BKN025
      TEMPO 2108/2112 -TSRA OVC015CB
     FM211500 32011KT P6SM BKN012=



000
FTUS44 KOUN 201134
TAFOUN
TAF
KOUN 201134Z 2012/2112 16008KT P6SM BKN150
     FM201400 18013KT P6SM VCSH BKN050 OVC100
     FM201800 17011KT P6SM VCSH SCT025 OVC050
      TEMPO 2020/2024 -RA
     FM210000 17012KT P6SM VCSH BKN025 OVC050
      TEMPO 2100/2103 -RA
     FM210600 16007KT 4SM BR OVC008 PROB30 2106/2112 -RA=



000
FTUS44 KOUN 201134
TAFPNC
TAF
KPNC 201134Z 2012/2112 17010KT P6SM BKN150
     FM201900 16011KT P6SM VCSH SCT050 BKN100
     FM210600 14007KT 5SM BR VCSH BKN015
      TEMPO 2108/2112 -RA=



000
FTUS44 KOUN 201134
TAFLAW
TAF
KLAW 201134Z 2012/2112 16009KT P6SM VCSH SCT050 BKN100
     FM201400 16009KT 6SM -SHRA SCT025 OVC050
     FM201800 17010KT P6SM VCSH SCT025 BKN050
     FM202100 17012KT P6SM VCTS SCT040CB BKN100
     FM210100 16009KT P6SM VCSH SCT008 BKN035
     FM210700 14004KT 4SM BR VCSH OVC015=



000
FTUS44 KOUN 201134
TAFWWR
TAF
KWWR 201134Z 2012/2112 17012KT P6SM VCSH SCT035 BKN070
      TEMPO 2014/2017 5SM -SHRA SCT025 OVC050
     FM210400 17009KT 5SM BR VCSH SCT008 BKN035
      TEMPO 2109/2112 BKN008 OVC035=



000
FTUS44 KOUN 201134
TAFSPS
TAF
KSPS 201134Z 2012/2112 16010KT P6SM VCSH SCT050 BKN100
     FM201400 16009KT 6SM -SHRA SCT025 OVC050
     FM201800 17012KT P6SM VCSH SCT025 BKN050
     FM202100 17012KT P6SM VCTS SCT040CB BKN100
     FM210100 16009KT P6SM VCSH SCT008 BKN035
     FM210700 14004KT 4SM BR VCSH OVC015=



000
FTUS44 KOUN 201134
TAFHBR
TAF
KHBR 201134Z 2012/2112 17010KT P6SM VCSH SCT050 BKN100
     FM201400 17010KT 6SM -SHRA SCT025 OVC050
     FM201800 17011KT P6SM VCSH SCT025 BKN050
     FM210300 17010KT P6SM VCSH SCT008 BKN035
     FM210700 17008KT 4SM BR VCSH BKN007 OVC030=



000
FTUS44 KOUN 201134
TAFGAG
TAF
KGAG 201134Z 2012/2112 18012KT P6SM VCSH SCT035 BKN070
      TEMPO 2014/2017 5SM -SHRA SCT025 OVC050
     FM210400 17009KT 5SM BR VCSH SCT008 BKN035
      TEMPO 2109/2112 BKN008 OVC035=



000
FTUS44 KOUN 201134
TAFOKC
TAF
KOKC 201134Z 2012/2112 17010KT P6SM BKN150
     FM201400 18013KT P6SM VCSH BKN050 OVC100
     FM201800 17011KT P6SM VCSH SCT025 OVC050
      TEMPO 2020/2024 -RA
     FM210000 17012KT P6SM VCSH BKN025 OVC050
      TEMPO 2100/2103 -RA
     FM210600 16007KT 4SM BR OVC008 PROB30 2106/2112 -RA=



000
FTUS44 KOUN 200654 RRA
TAFOKC
TAF
KOKC 200654Z 2007/2106 17010KT P6SM BKN150
     FM201400 18013KT P6SM BKN050
     FM201800 17011KT P6SM VCSH FEW025 BKN050=



000
FTUS44 KOUN 200654 RRA
TAFOUN
TAF
KOUN 200654Z 2007/2106 16008KT P6SM BKN150
     FM201400 18012KT P6SM BKN050
     FM201800 17010KT P6SM VCSH FEW025 BKN050=



000
FTUS44 KOUN 200654 RRA
TAFGAG
TAF
KGAG 200654Z 2007/2106 18014G21KT P6SM BKN130
     FM201000 18012KT P6SM VCSH SCT035 BKN070
      TEMPO 2013/2015 5SM -SHRA SCT025 OVC050
     FM210400 17009KT 5SM BR VCSH SCT008 BKN035=



000
FTUS44 KOUN 200654 RRA
TAFWWR
TAF
KWWR 200654Z 2007/2106 17013G20KT P6SM BKN130
     FM201100 17012KT P6SM VCSH SCT035 BKN070
      TEMPO 2014/2016 5SM -SHRA SCT025 OVC050
     FM210400 17009KT 5SM BR VCSH SCT008 BKN035=



000
FTUS44 KOUN 200654 RRA
TAFSPS
TAF
KSPS 200654Z 2007/2106 16010KT P6SM BKN150
     FM201000 16010KT P6SM VCSH SCT050 BKN100
     FM201400 16009KT 6SM -SHRA SCT025 OVC050
      TEMPO 2015/2017 3SM SHRA SCT015 BKN025
     FM201800 17012KT P6SM VCSH SCT025 BKN050
     FM202100 17012KT P6SM VCTS SCT040CB BKN100
     FM210100 16009KT P6SM VCSH SCT008 BKN035=



000
FTUS44 KOUN 200654 RRA
TAFHBR
TAF
KHBR 200654Z 2007/2106 17012KT P6SM BKN150
     FM201000 17010KT P6SM VCSH SCT050 BKN100
     FM201400 17010KT 6SM -SHRA SCT025 OVC050
      TEMPO 2015/2017 3SM SHRA SCT015 BKN025
     FM201800 17011KT P6SM VCSH SCT025 BKN050
     FM210300 17010KT P6SM VCSH SCT008 BKN035=



000
FTUS44 KOUN 200654 RRA
TAFPNC
TAF
KPNC 200654Z 2007/2106 17010KT P6SM BKN150
     FM202200 16011KT P6SM VCSH SCT050 BKN100=



000
FTUS44 KOUN 200654 RRA
TAFLAW
TAF
KLAW 200654Z 2007/2106 15009KT P6SM BKN150
     FM201100 16009KT P6SM VCSH SCT050 BKN100
     FM201400 16009KT 6SM -SHRA SCT025 OVC050
      TEMPO 2015/2017 3SM SHRA SCT015 BKN025
     FM201800 17010KT P6SM VCSH SCT025 BKN050
     FM202100 17012KT P6SM VCTS SCT040CB BKN100
     FM210100 16009KT P6SM VCSH SCT008 BKN035=



000
FTUS44 KOUN 192338
TAFHBR
TAF
KHBR 192338Z 2000/2024 16011KT P6SM BKN180
     FM201000 17010KT P6SM VCSH SCT050 BKN100
     FM201600 17010KT P6SM VCSH SCT025 BKN050
     FM202100 17013KT P6SM SCT035=



000
FTUS44 KOUN 192338
TAFLAW
TAF
KLAW 192338Z 2000/2024 15009KT P6SM BKN180
     FM201200 16009KT P6SM VCSH SCT050 BKN100
     FM201600 17010KT P6SM VCSH SCT025 BKN050
     FM202000 17013KT P6SM SCT035
     FM202100 17012KT P6SM VCTS SCT040CB BKN100=



000
FTUS44 KOUN 192338
TAFSPS
TAF
KSPS 192338Z 2000/2024 16010KT P6SM BKN180
     FM201400 17010KT P6SM VCSH SCT025 BKN050
     FM201900 17013KT P6SM SCT035
     FM202100 17012KT P6SM VCTS SCT040CB BKN100=



000
FTUS44 KOUN 192338
TAFGAG
TAF
KGAG 192338Z 2000/2024 16014G21KT P6SM BKN150
     FM200900 18012KT P6SM VCSH BKN070
     FM201600 18011KT 5SM -SHRA SCT025 OVC050=



000
FTUS44 KOUN 192338
TAFPNC
TAF
KPNC 192338Z 2000/2024 16010KT P6SM BKN150
     FM202200 16011KT P6SM VCSH SCT050 BKN100=



000
FTUS44 KOUN 192338
TAFWWR
TAF
KWWR 192338Z 2000/2024 16014G20KT P6SM BKN150
     FM201000 18012KT P6SM VCSH BKN070
     FM201700 18011KT 5SM -SHRA SCT025 OVC050=



000
FTUS44 KOUN 192338
TAFOUN
TAF
KOUN 192338Z 2000/2024 16009KT P6SM BKN190
     FM201400 18013KT P6SM BKN050
     FM201900 17013KT P6SM VCSH BKN050=



000
FTUS44 KOUN 192338
TAFOKC
TAF
KOKC 192338Z 2000/2024 16010KT P6SM BKN190
     FM201400 18013KT P6SM BKN050
     FM201900 17013KT P6SM VCSH BKN050=



000
FTUS44 KOUN 191739
TAFGAG
TAF
KGAG 191739Z 1918/2018 19023G32KT P6SM BKN250
     FM200100 17016G24KT P6SM BKN100
     FM200900 19014KT P6SM BKN050 OVC100=



000
FTUS44 KOUN 191739
TAFOUN
TAF
KOUN 191739Z 1918/2018 17015G21KT P6SM SCT250
     FM200100 15009KT P6SM BKN250
     FM201400 17012KT P6SM BKN040 OVC120 PROB30 2015/2018 -SHRA=



000
FTUS44 KOUN 191739
TAFOKC
TAF
KOKC 191739Z 1918/2018 18017G24KT P6SM SCT250
     FM200100 16011KT P6SM BKN250
     FM201400 18013KT P6SM BKN050 OVC120 PROB30 2015/2018 -SHRA=



000
FTUS44 KOUN 191739
TAFWWR
TAF
KWWR 191739Z 1918/2018 19023G32KT P6SM BKN250
     FM200100 17016G24KT P6SM BKN100
     FM200900 19014KT P6SM BKN050 OVC100=



000
FTUS44 KOUN 191739
TAFHBR
TAF
KHBR 191739Z 1918/2018 19018G28KT P6SM BKN250
     FM200100 17014KT P6SM BKN120 OVC250
     FM201200 18014KT P6SM BKN035 OVC100 PROB30 2012/2018 -SHRA=



000
FTUS44 KOUN 191739
TAFPNC
TAF
KPNC 191739Z 1918/2018 19015G24KT P6SM SCT250
     FM200100 15010KT P6SM BKN250
     FM201400 18013KT P6SM BKN060 OVC120=



000
FTUS44 KOUN 191739
TAFSPS
TAF
KSPS 191739Z 1918/2018 17014G21KT P6SM SCT250
     FM200100 15010KT P6SM BKN120 OVC250
     FM201200 17013KT P6SM BKN025 OVC100 PROB30 2012/2018 -SHRA=



000
FTUS44 KOUN 191739
TAFLAW
TAF
KLAW 191739Z 1918/2018 18014G21KT P6SM SCT250
     FM200100 15009KT P6SM BKN120 OVC250
     FM201200 18013KT P6SM BKN030 OVC100 PROB30 2012/2018 -SHRA=



000
FTUS44 KOUN 191120
TAFWWR
TAF
KWWR 191120Z 1912/2012 17015G21KT P6SM BKN250
     FM191400 19020G30KT P6SM BKN180
     FM200100 17015G21KT P6SM BKN150=



000
FTUS44 KOUN 191120
TAFGAG
TAF
KGAG 191120Z 1912/2012 18015G21KT P6SM BKN250
     FM191400 19021G30KT P6SM BKN180
     FM200100 17015G21KT P6SM BKN150=



000
FTUS44 KOUN 191120
TAFOKC
TAF
KOKC 191120Z 1912/2012 15008KT P6SM BKN250
     FM191500 17013G21KT P6SM FEW050 BKN200
     FM200300 15009KT P6SM OVC250=



000
FTUS44 KOUN 191120
TAFHBR
TAF
KHBR 191120Z 1912/2012 18011KT P6SM BKN250
     FM191400 18015G22KT P6SM FEW050 BKN180
     FM200100 17011KT P6SM BKN160=



000
FTUS44 KOUN 191120
TAFLAW
TAF
KLAW 191120Z 1912/2012 14005KT P6SM BKN250
     FM191500 17013G21KT P6SM FEW050 BKN200
     FM200300 15009KT P6SM OVC250=



000
FTUS44 KOUN 191120
TAFOUN
TAF
KOUN 191120Z 1912/2012 15006KT P6SM BKN250
     FM191500 17013G21KT P6SM FEW050 BKN200
     FM200300 15009KT P6SM OVC250=



000
FTUS44 KOUN 191120
TAFSPS
TAF
KSPS 191120Z 1912/2012 16010KT P6SM FEW050 BKN250
     FM191500 17012G17KT P6SM BKN250
     FM200300 16009KT P6SM OVC250=



000
FTUS44 KOUN 191120
TAFPNC
TAF
KPNC 191120Z 1912/2012 16008KT P6SM BKN250
     FM191400 17013G21KT P6SM FEW040 BKN200
     FM200100 15010KT P6SM BKN180=



000
FTUS44 KOUN 190520
TAFOUN
TAF
KOUN 190520Z 1906/2006 15006KT P6SM BKN250
     FM191400 17012KT P6SM FEW050 BKN200=



000
FTUS44 KOUN 190520
TAFLAW
TAF
KLAW 190520Z 1906/2006 16005KT P6SM BKN250
     FM191400 17011KT P6SM FEW050 BKN200=



000
FTUS44 KOUN 190520
TAFGAG
TAF
KGAG 190520Z 1906/2006 18015G21KT P6SM BKN250
     FM191400 19021G30KT P6SM BKN180
     FM200100 17015G21KT P6SM BKN150=



000
FTUS44 KOUN 190520
TAFWWR
TAF
KWWR 190520Z 1906/2006 17015G21KT P6SM BKN250
     FM191400 19020G30KT P6SM BKN180
     FM200100 17015G21KT P6SM BKN150=



000
FTUS44 KOUN 190520
TAFSPS
TAF
KSPS 190520Z 1906/2006 16010KT P6SM FEW050 BKN250=



000
FTUS44 KOUN 190520
TAFPNC
TAF
KPNC 190520Z 1906/2006 14008KT P6SM BKN250
     FM191400 17013G21KT P6SM FEW040 BKN200
     FM200100 15010KT P6SM BKN180=



000
FTUS44 KOUN 190520
TAFHBR
TAF
KHBR 190520Z 1906/2006 18011KT P6SM BKN250
     FM191400 18015G22KT P6SM FEW050 BKN180
     FM200100 17011KT P6SM BKN160=



000
FTUS44 KOUN 190520
TAFOKC
TAF
KOKC 190520Z 1906/2006 15008KT P6SM BKN250
     FM191400 17013KT P6SM FEW050 BKN200=



000
FTUS44 KOUN 182320
TAFGAG
TAF
KGAG 182320Z 1900/1924 18015KT P6SM BKN250
     FM191400 19021G29KT P6SM BKN170=



000
FTUS44 KOUN 182320
TAFOUN
TAF
KOUN 182320Z 1900/1924 15006KT P6SM BKN250
     FM191400 17013KT P6SM FEW050 BKN200=



000
FTUS44 KOUN 182320
TAFPNC
TAF
KPNC 182320Z 1900/1924 14007KT P6SM BKN250
     FM191400 17013G21KT P6SM FEW040 BKN200=



000
FTUS44 KOUN 182320
TAFHBR
TAF
KHBR 182320Z 1900/1924 17013KT P6SM BKN250
     FM191400 18015G22KT P6SM BKN180=



000
FTUS44 KOUN 182320
TAFOKC
TAF
KOKC 182320Z 1900/1924 15007KT P6SM BKN250
     FM191400 17013KT P6SM FEW050 BKN200=



000
FTUS44 KOUN 182320
TAFWWR
TAF
KWWR 182320Z 1900/1924 17015KT P6SM BKN250
     FM191400 19021G29KT P6SM BKN170=



000
FTUS44 KOUN 182320
TAFLAW
TAF
KLAW 182320Z 1900/1924 14006KT P6SM BKN250
     FM191400 18012KT P6SM BKN200=



000
FTUS44 KOUN 182320
TAFSPS
TAF
KSPS 182320Z 1900/1924 14006KT P6SM BKN250
     FM191400 18012KT P6SM BKN200=



000
FTUS44 KOUN 181720
TAFOKC
TAF
KOKC 181720Z 1818/1918 13009KT P6SM SKC
     FM191400 17012KT P6SM SCT250=



000
FTUS44 KOUN 181720
TAFPNC
TAF
KPNC 181720Z 1818/1918 13009KT P6SM SKC
     FM191400 17012G18KT P6SM SKC=



000
FTUS44 KOUN 181720
TAFWWR
TAF
KWWR 181720Z 1818/1918 17015G22KT P6SM SKC=



000
FTUS44 KOUN 181720
TAFOUN
TAF
KOUN 181720Z 1818/1918 13008KT P6SM SKC
     FM191400 17012KT P6SM SCT250=



000
FTUS44 KOUN 181720
TAFHBR
TAF
KHBR 181720Z 1818/1918 18012KT P6SM SCT035
     FM191500 19014G20KT P6SM FEW250=



000
FTUS44 KOUN 181720
TAFSPS
TAF
KSPS 181720Z 1818/1918 14008KT P6SM BKN035=



000
FTUS44 KOUN 181720
TAFLAW
TAF
KLAW 181720Z 1818/1918 14007KT P6SM SCT035=



000
FTUS44 KOUN 181720
TAFGAG
TAF
KGAG 181720Z 1818/1918 18016G24KT P6SM SKC=



000
FTUS44 KOUN 181120
TAFOKC
TAF
KOKC 181120Z 1812/1912 01006KT 4SM BR SKC
     FM181500 14007KT P6SM SKC=



000
FTUS44 KOUN 181120
TAFGAG
TAF
KGAG 181120Z 1812/1912 16009KT P6SM BKN030
     FM181600 19016G23KT P6SM SCT035
     FM190300 17013KT P6SM SCT250=



000
FTUS44 KOUN 181120
TAFPNC
TAF
KPNC 181120Z 1812/1912 08003KT 4SM BR SKC
     FM181500 15009KT P6SM SKC=



000
FTUS44 KOUN 181120
TAFSPS
TAF
KSPS 181120Z 1812/1912 05006KT P6SM BKN030 BKN060
     FM181500 12007KT P6SM BKN050
     FM182100 14008KT P6SM SKC=



000
FTUS44 KOUN 181120
TAFWWR
TAF
KWWR 181120Z 1812/1912 16009KT P6SM BKN035
     FM181600 19016G23KT P6SM SCT035
     FM190300 17013KT P6SM SCT250=



000
FTUS44 KOUN 181120
TAFHBR
TAF
KHBR 181120Z 1812/1912 15009KT 6SM BR BKN030 BKN050
      TEMPO 1813/1816 SCT030 BKN050
     FM181600 17013KT P6SM SCT035
     FM182000 17013G20KT P6SM FEW050
     FM190100 17010KT P6SM FEW250=



000
FTUS44 KOUN 181120
TAFLAW
TAF
KLAW 181120Z 1812/1912 05006KT 6SM BR BKN030 BKN060
     FM181500 12007KT P6SM BKN050
     FM182100 14008KT P6SM SKC=



000
FTUS44 KOUN 181120
TAFOUN
TAF
KOUN 181120Z 1812/1912 02003KT 4SM BR SKC
     FM181500 14005KT P6SM SKC=



    US Dept of Commerce
    National Oceanic and Atmospheric Administration
    National Weather Service
    1325 East West Highway
    Silver Spring, MD 20910
    Page Author: NWS Internet Services Team
Disclaimer
Information Quality
Credits
Glossary
Privacy Policy
Freedom of Information Act (FOIA)
About Us
Career Opportunities